createdAt,value
2022-08-14T00:02:24.476Z,2.17
2022-08-14T00:04:55.406Z,2.30
2022-08-14T00:07:23.467Z,2.33
2022-08-14T00:10:01.930Z,2.17
2022-08-14T00:12:53.379Z,2.22
2022-08-14T00:15:43.520Z,1.88
2022-08-14T00:18:30.993Z,2.38
2022-08-14T00:21:05.014Z,1.90
2022-08-14T00:23:40.307Z,2.67
2022-08-14T00:26:08.344Z,2.35
2022-08-14T00:28:50.859Z,2.20
2022-08-14T00:31:19.500Z,2.28
2022-08-14T00:33:52.294Z,2.30
2022-08-14T00:36:36.112Z,2.45
2022-08-14T00:39:18.241Z,2.63
2022-08-14T00:41:47.995Z,2.20
2022-08-14T00:44:21.283Z,2.40
2022-08-14T00:46:58.781Z,2.33
2022-08-14T00:49:30.043Z,2.40
2022-08-14T00:52:00.682Z,1.95
2022-08-14T00:54:28.598Z,2.38
2022-08-14T00:56:56.823Z,2.22
2022-08-14T00:59:28.778Z,2.50
2022-08-14T01:02:00.632Z,2.67
2022-08-14T01:04:52.225Z,1.92
2022-08-14T01:07:21.921Z,2.50
2022-08-14T01:09:56.698Z,2.40
2022-08-14T01:12:27.148Z,2.60
2022-08-14T01:15:09.692Z,2.40
2022-08-14T01:18:01.278Z,2.08
2022-08-14T01:20:49.431Z,2.17
2022-08-14T01:23:18.757Z,2.33
2022-08-14T01:25:49.176Z,2.05
2022-08-14T01:28:47.018Z,2.33
2022-08-14T01:31:14.396Z,2.08
2022-08-14T01:33:59.507Z,2.45
2022-08-14T01:36:39.325Z,2.38
2022-08-14T01:39:18.240Z,2.35
2022-08-14T01:41:53.100Z,2.10
2022-08-14T01:44:32.528Z,2.40
2022-08-14T01:47:21.850Z,2.10
2022-08-14T01:50:01.148Z,1.98
2022-08-14T01:52:58.395Z,2.60
2022-08-14T01:55:32.601Z,2.03
2022-08-14T01:58:18.779Z,1.98
2022-08-14T02:00:54.965Z,2.40
2022-08-14T02:03:29.717Z,2.55
2022-08-14T02:06:04.058Z,2.60
2022-08-14T02:08:52.921Z,2.22
2022-08-14T02:11:25.562Z,2.67
2022-08-14T02:14:06.686Z,1.80
2022-08-14T02:16:39.439Z,2.25
2022-08-14T02:19:16.258Z,2.10
2022-08-14T02:21:50.471Z,2.13
2022-08-14T02:24:39.207Z,2.63
2022-08-14T02:28:24.817Z,2.28
2022-08-14T02:30:01.993Z,2.70
2022-08-14T02:32:36.630Z,2.40
2022-08-14T02:35:15.866Z,2.53
2022-08-14T02:37:47.025Z,2.17
2022-08-14T02:40:18.837Z,2.30
2022-08-14T02:42:55.306Z,2.28
2022-08-14T02:45:33.532Z,2.47
2022-08-14T02:48:10.333Z,2.17
2022-08-14T02:50:55.591Z,2.63
2022-08-14T02:53:23.303Z,1.92
2022-08-14T02:55:51.255Z,2.05
2022-08-14T02:58:30.273Z,2.50
2022-08-14T03:01:01.288Z,2.58
2022-08-14T03:03:31.458Z,2.28
2022-08-14T03:06:00.592Z,2.55
2022-08-14T03:08:32.266Z,2.50
2022-08-14T03:11:07.642Z,2.22
2022-08-14T03:13:38.426Z,2.30
2022-08-14T03:16:20.090Z,2.33
2022-08-14T03:18:59.905Z,2.33
2022-08-14T03:21:28.570Z,2.58
2022-08-14T03:24:21.621Z,2.45
2022-08-14T03:26:57.409Z,1.92
2022-08-14T03:29:27.747Z,2.40
2022-08-14T03:31:57.499Z,2.83
2022-08-14T03:34:52.763Z,2.17
2022-08-14T03:37:50.798Z,2.28
2022-08-14T03:40:06.836Z,2.20
2022-08-14T03:42:39.582Z,2.53
2022-08-14T03:45:18.905Z,2.17
2022-08-14T03:47:58.767Z,2.60
2022-08-14T03:50:32.586Z,2.20
2022-08-14T03:53:02.711Z,2.40
2022-08-14T03:55:31.503Z,2.30
2022-08-14T03:58:00.542Z,2.13
2022-08-14T04:00:42.996Z,2.80
2022-08-14T04:03:17.983Z,2.47
2022-08-14T04:05:48.451Z,2.10
2022-08-14T04:08:29.410Z,2.10
2022-08-14T04:11:00.955Z,2.42
2022-08-14T04:13:33.963Z,2.60
2022-08-14T04:16:05.005Z,2.95
2022-08-14T04:18:34.109Z,2.25
2022-08-14T04:21:02.426Z,2.05
2022-08-14T04:23:33.720Z,2.72
2022-08-14T04:26:14.480Z,2.38
2022-08-14T04:29:07.911Z,2.28
2022-08-14T04:32:59.194Z,2.58
2022-08-14T04:34:24.174Z,2.17
2022-08-14T04:37:22.365Z,2.30
2022-08-14T04:40:15.258Z,1.88
2022-08-14T04:43:02.655Z,2.20
2022-08-14T04:45:38.107Z,2.22
2022-08-14T04:48:31.607Z,2.58
2022-08-14T04:51:06.785Z,2.63
2022-08-14T04:53:36.067Z,2.60
2022-08-14T04:56:10.709Z,2.42
2022-08-14T04:59:09.612Z,2.53
2022-08-14T05:01:47.767Z,2.22
2022-08-14T05:04:20.981Z,2.30
2022-08-14T05:06:53.684Z,2.30
2022-08-14T05:09:29.146Z,2.10
2022-08-14T05:13:11.619Z,2.42
2022-08-14T05:14:55.237Z,2.30
2022-08-14T05:17:43.549Z,2.33
2022-08-14T05:21:10.748Z,1.90
2022-08-14T05:23:01.326Z,2.30
2022-08-14T05:25:30.709Z,2.35
2022-08-14T05:28:28.868Z,2.38
2022-08-14T05:31:01.234Z,2.20
2022-08-14T05:33:33.513Z,2.65
2022-08-14T05:36:16.848Z,2.53
2022-08-14T05:38:47.528Z,2.38
2022-08-14T05:41:19.354Z,2.00
2022-08-14T05:43:48.558Z,2.50
2022-08-14T05:46:20.816Z,2.40
2022-08-14T05:48:55.444Z,2.05
2022-08-14T05:51:33.957Z,2.47
2022-08-14T05:54:11.479Z,2.30
2022-08-14T05:56:41.755Z,1.90
2022-08-14T05:59:11.230Z,2.53
2022-08-14T06:01:39.238Z,1.83
2022-08-14T06:04:07.591Z,2.67
2022-08-14T06:06:38.447Z,1.70
2022-08-14T06:09:10.013Z,1.80
2022-08-14T06:11:38.365Z,2.22
2022-08-14T06:14:21.031Z,2.08
2022-08-14T06:16:52.053Z,2.05
2022-08-14T06:19:27.103Z,1.77
2022-08-14T06:21:58.389Z,2.20
2022-08-14T06:24:30.552Z,1.83
2022-08-14T06:27:06.038Z,1.83
2022-08-14T06:29:35.343Z,2.15
2022-08-14T06:32:38.754Z,1.90
2022-08-14T06:35:03.291Z,2.33
2022-08-14T06:37:51.689Z,2.10
2022-08-14T06:40:27.381Z,1.90
2022-08-14T06:43:00.464Z,2.40
2022-08-14T06:45:36.636Z,2.60
2022-08-14T06:48:21.830Z,2.00
2022-08-14T06:50:51.546Z,1.90
2022-08-14T06:53:20.025Z,1.70
2022-08-14T06:55:58.253Z,1.77
2022-08-14T06:58:31.631Z,1.73
2022-08-14T07:01:26.699Z,1.90
2022-08-14T07:04:22.744Z,1.80
2022-08-14T07:09:24.367Z,2.10
2022-08-14T07:11:52.497Z,1.90
2022-08-14T07:14:20.498Z,2.13
2022-08-14T07:16:48.683Z,2.00
2022-08-14T07:19:20.844Z,1.80
2022-08-14T07:21:50.340Z,2.33
2022-08-14T07:24:22.198Z,1.73
2022-08-14T07:26:59.144Z,1.85
2022-08-14T07:29:28.880Z,2.03
2022-08-14T07:31:56.960Z,1.80
2022-08-14T07:34:35.985Z,1.83
2022-08-14T07:37:08.590Z,1.88
2022-08-14T07:39:38.566Z,1.90
2022-08-14T07:42:07.122Z,1.40
2022-08-14T07:44:35.827Z,2.00
2022-08-14T07:47:16.626Z,2.10
2022-08-14T07:50:12.877Z,3.25
2022-08-14T07:52:46.378Z,1.90
2022-08-14T07:55:15.313Z,1.40
2022-08-14T07:57:51.921Z,1.83
2022-08-14T08:00:31.243Z,1.60
2022-08-14T08:03:00.274Z,1.95
2022-08-14T08:05:28.371Z,1.50
2022-08-14T08:07:56.213Z,1.58
2022-08-14T08:11:01.263Z,1.50
2022-08-14T08:13:22.217Z,1.40
2022-08-14T08:15:56.727Z,1.30
2022-08-14T08:18:27.379Z,1.52
2022-08-14T08:20:59.787Z,1.60
2022-08-14T08:23:40.122Z,1.23
2022-08-14T08:26:11.243Z,1.67
2022-08-14T08:28:43.684Z,1.80
2022-08-14T08:31:12.849Z,1.30
2022-08-14T08:33:49.368Z,1.80
2022-08-14T08:36:18.845Z,1.27
2022-08-14T08:39:18.773Z,1.83
2022-08-14T08:41:50.577Z,1.08
2022-08-14T08:44:31.672Z,1.60
2022-08-14T08:47:06.555Z,1.40
2022-08-14T08:49:52.886Z,1.23
2022-08-14T08:52:31.287Z,1.38
2022-08-14T08:55:04.316Z,1.27
2022-08-14T08:57:37.728Z,1.65
2022-08-14T09:00:25.016Z,1.50
2022-08-14T09:03:04.052Z,1.27
2022-08-14T09:05:33.528Z,1.30
2022-08-14T09:08:31.060Z,1.30
2022-08-14T09:11:21.040Z,0.93
2022-08-14T09:13:51.615Z,1.40
2022-08-14T09:16:23.656Z,0.80
2022-08-14T09:18:53.305Z,1.40
2022-08-14T09:21:24.086Z,1.10
2022-08-14T09:24:28.156Z,1.10
2022-08-14T09:26:49.224Z,1.38
2022-08-14T09:29:19.887Z,1.33
2022-08-14T09:31:58.265Z,1.10
2022-08-14T09:34:58.912Z,1.38
2022-08-14T09:37:36.078Z,1.08
2022-08-14T09:40:20.764Z,1.30
2022-08-14T09:43:20.079Z,1.13
2022-08-14T09:45:52.797Z,1.25
2022-08-14T09:48:30.120Z,1.60
2022-08-14T09:54:17.965Z,1.70
2022-08-14T09:56:56.533Z,1.27
2022-08-14T09:59:28.078Z,1.20
2022-08-14T10:02:00.198Z,1.80
2022-08-14T10:04:33.442Z,1.85
2022-08-14T10:07:08.540Z,2.17
2022-08-14T10:10:00.040Z,1.67
2022-08-14T10:12:43.220Z,1.88
2022-08-14T10:15:20.776Z,1.63
2022-08-14T10:17:49.707Z,1.65
2022-08-14T10:20:40.726Z,1.90
2022-08-14T10:23:22.165Z,1.90
2022-08-14T10:25:57.499Z,1.90
2022-08-14T10:28:51.609Z,1.45
2022-08-14T10:31:29.885Z,1.92
2022-08-14T10:34:19.036Z,1.80
2022-08-14T10:37:02.561Z,1.73
2022-08-14T10:39:30.835Z,1.77
2022-08-14T10:42:16.446Z,1.70
2022-08-14T10:44:52.593Z,1.80
2022-08-14T10:47:40.110Z,1.95
2022-08-14T10:50:12.188Z,1.88
2022-08-14T10:52:44.989Z,2.05
2022-08-14T10:55:16.849Z,1.67
2022-08-14T10:57:53.293Z,1.90
2022-08-14T11:00:30.105Z,1.95
2022-08-14T11:03:19.939Z,1.95
2022-08-14T11:06:22.477Z,1.88
2022-08-14T11:08:54.321Z,1.80
2022-08-14T11:11:25.401Z,2.03
2022-08-14T11:13:57.526Z,2.00
2022-08-14T11:16:27.067Z,1.90
2022-08-14T11:18:59.725Z,2.10
2022-08-14T11:21:30.080Z,1.92
2022-08-14T11:23:59.756Z,1.63
2022-08-14T11:26:30.160Z,1.50
2022-08-14T11:29:00.305Z,1.65
2022-08-14T11:31:38.483Z,2.15
2022-08-14T11:34:10.430Z,1.52
2022-08-14T11:37:03.905Z,1.65
2022-08-14T11:39:45.369Z,2.30
2022-08-14T11:42:56.884Z,2.08
2022-08-14T11:45:18.733Z,1.90
2022-08-14T11:48:13.789Z,1.67
2022-08-14T11:50:45.757Z,1.92
2022-08-14T11:53:27.026Z,1.83
2022-08-14T11:55:57.476Z,1.60
2022-08-14T11:58:29.278Z,1.67
2022-08-14T12:01:04.158Z,1.83
2022-08-14T12:03:52.242Z,1.85
2022-08-14T12:06:29.592Z,1.45
2022-08-14T12:09:08.329Z,1.88
2022-08-14T12:11:43.355Z,1.63
2022-08-14T12:14:30.690Z,2.13
2022-08-14T12:17:12.276Z,2.00
2022-08-14T12:19:59.198Z,1.80
2022-08-14T12:22:40.247Z,1.70
2022-08-14T12:25:13.919Z,1.90
2022-08-14T12:27:53.677Z,1.60
2022-08-14T12:30:43.701Z,1.77
2022-08-14T12:33:31.309Z,1.73
2022-08-14T12:36:10.250Z,1.27
2022-08-14T12:38:43.494Z,1.70
2022-08-14T12:41:21.354Z,1.70
2022-08-14T12:43:59.798Z,1.58
2022-08-14T12:46:46.771Z,1.25
2022-08-14T12:49:17.763Z,1.65
2022-08-14T12:52:00.568Z,1.60
2022-08-14T12:54:32.476Z,1.80
2022-08-14T12:57:07.071Z,1.70
2022-08-14T12:59:37.224Z,1.60
2022-08-14T13:02:26.548Z,1.67
2022-08-14T13:04:57.706Z,1.40
2022-08-14T13:07:32.125Z,1.60
2022-08-14T13:10:33.611Z,1.48
2022-08-14T13:13:12.515Z,1.27
2022-08-14T13:15:42.064Z,1.42
2022-08-14T13:18:15.755Z,1.40
2022-08-14T13:20:57.724Z,1.63
2022-08-14T13:23:31.769Z,1.50
2022-08-14T13:26:00.999Z,1.73
2022-08-14T13:28:32.677Z,1.80
2022-08-14T13:31:09.020Z,1.60
2022-08-14T13:33:40.923Z,1.67
2022-08-14T13:36:24.632Z,1.33
2022-08-14T13:39:24.638Z,1.25
2022-08-14T13:41:57.677Z,1.60
2022-08-14T13:44:28.830Z,1.55
2022-08-14T13:47:08.795Z,1.50
2022-08-14T13:49:40.277Z,1.30
2022-08-14T13:52:59.018Z,1.75
2022-08-14T13:55:32.549Z,1.33
2022-08-14T13:58:11.564Z,1.42
2022-08-14T14:00:58.856Z,1.40
2022-08-14T14:03:30.497Z,1.20
2022-08-14T14:06:02.453Z,1.90
2022-08-14T14:08:45.947Z,1.48
2022-08-14T14:11:17.572Z,1.50
2022-08-14T14:13:48.628Z,1.30
2022-08-14T14:16:26.090Z,3.38
2022-08-14T14:19:08.799Z,1.77
2022-08-14T14:21:40.954Z,1.63
2022-08-14T14:24:14.848Z,1.15
2022-08-14T14:26:50.703Z,1.17
2022-08-14T14:29:25.993Z,1.15
2022-08-14T14:31:54.711Z,1.20
2022-08-14T14:34:29.301Z,1.55
2022-08-14T14:37:11.055Z,1.83
2022-08-14T14:40:52.026Z,1.38
2022-08-14T14:42:42.337Z,1.42
2022-08-14T14:45:15.561Z,1.63
2022-08-14T14:47:45.353Z,1.40
2022-08-14T14:50:15.217Z,1.20
2022-08-14T14:52:44.948Z,1.58
2022-08-14T14:55:13.524Z,1.45
2022-08-14T14:57:46.040Z,1.25
2022-08-14T15:00:20.796Z,1.48
2022-08-14T15:02:51.625Z,1.20
2022-08-14T15:05:21.409Z,1.50
2022-08-14T15:07:52.853Z,1.33
2022-08-14T15:10:27.658Z,1.40
2022-08-14T15:13:04.012Z,1.50
2022-08-14T15:15:37.130Z,1.65
2022-08-14T15:18:36.096Z,1.40
2022-08-14T15:20:57.553Z,1.50
2022-08-14T15:23:34.135Z,1.90
2022-08-14T15:26:31.286Z,1.42
2022-08-14T15:29:06.108Z,1.58
2022-08-14T15:31:36.125Z,1.80
2022-08-14T15:34:43.155Z,1.40
2022-08-14T15:36:59.504Z,1.70
2022-08-14T15:39:29.526Z,1.55
2022-08-14T15:42:03.004Z,1.98
2022-08-14T15:44:36.509Z,1.30
2022-08-14T15:47:11.876Z,1.58
2022-08-14T15:49:40.125Z,1.70
2022-08-14T15:52:08.838Z,1.50
2022-08-14T15:54:39.220Z,1.73
2022-08-14T15:57:09.631Z,1.80
2022-08-14T15:59:58.566Z,1.35
2022-08-14T16:02:28.157Z,1.95
2022-08-14T16:04:56.500Z,1.75
2022-08-14T16:07:27.406Z,2.10
2022-08-14T16:10:27.312Z,1.88
2022-08-14T16:12:54.563Z,1.90
2022-08-14T16:15:23.463Z,1.80
2022-08-14T16:17:52.951Z,1.73
2022-08-14T16:23:12.601Z,1.80
2022-08-14T16:25:44.559Z,1.83
2022-08-14T16:28:27.003Z,1.45
2022-08-14T16:31:00.833Z,1.75
2022-08-14T16:33:59.521Z,2.00
2022-08-14T16:36:30.423Z,2.13
2022-08-14T16:39:04.033Z,2.15
2022-08-14T16:40:23.868Z,1.83
2022-08-14T16:41:31.894Z,2.00
2022-08-14T16:44:13.853Z,1.88
2022-08-14T16:46:57.119Z,1.90
2022-08-14T16:50:03.392Z,1.80
2022-08-14T16:52:26.314Z,2.33
2022-08-14T16:55:09.449Z,1.80
2022-08-14T16:57:54.564Z,1.90
2022-08-14T17:00:43.114Z,1.90
2022-08-14T17:03:13.355Z,1.83
2022-08-14T17:05:43.842Z,1.52
2022-08-14T17:08:41.906Z,2.20
2022-08-14T17:11:12.785Z,2.13
2022-08-14T17:13:58.188Z,2.10
2022-08-14T17:16:31.125Z,1.95
2022-08-14T17:19:01.754Z,2.03
2022-08-14T17:21:34.044Z,1.63
2022-08-14T17:24:57.088Z,2.10
2022-08-14T17:27:03.995Z,2.13
2022-08-14T17:29:56.424Z,2.20
2022-08-14T17:32:55.713Z,2.00
2022-08-14T17:35:57.629Z,2.00
2022-08-14T17:38:39.113Z,2.00
2022-08-14T17:41:22.691Z,1.70
2022-08-14T17:43:55.036Z,1.98
2022-08-14T17:46:35.303Z,2.40
2022-08-14T17:49:16.095Z,2.40
2022-08-14T17:52:16.799Z,2.17
2022-08-14T17:54:59.065Z,2.58
2022-08-14T17:57:35.627Z,1.95
2022-08-14T18:00:17.561Z,2.33
2022-08-14T18:02:50.575Z,1.95
2022-08-14T18:05:22.881Z,2.38
2022-08-14T18:08:32.501Z,2.30
2022-08-14T18:10:55.005Z,2.10
2022-08-14T18:13:50.746Z,2.33
2022-08-14T18:16:20.197Z,2.10
2022-08-14T18:18:51.526Z,2.20
2022-08-14T18:21:39.690Z,2.00
2022-08-14T18:24:28.552Z,2.15
2022-08-14T18:27:08.714Z,2.33
2022-08-14T18:29:45.034Z,2.35
2022-08-14T18:32:32.700Z,2.60
2022-08-14T18:35:02.278Z,2.72
2022-08-14T18:37:33.561Z,2.63
2022-08-14T18:40:17.806Z,2.47
2022-08-14T18:42:47.267Z,2.53
2022-08-14T18:45:28.773Z,2.60
2022-08-14T18:48:19.350Z,2.25
2022-08-14T18:50:52.466Z,2.67
2022-08-14T18:53:24.460Z,2.63
2022-08-14T18:55:59.989Z,2.50
2022-08-14T18:58:57.032Z,2.65
2022-08-14T19:04:01.491Z,2.63
2022-08-14T19:06:40.292Z,2.28
2022-08-14T19:09:28.624Z,2.53
2022-08-14T19:11:56.982Z,2.88
2022-08-14T19:14:46.448Z,2.70
2022-08-14T19:17:42.087Z,2.50
2022-08-14T19:20:11.430Z,2.63
2022-08-14T19:22:43.782Z,2.58
2022-08-14T19:25:33.824Z,2.38
2022-08-14T19:28:48.514Z,3.30
2022-08-14T19:31:37.055Z,2.33
2022-08-14T19:34:10.425Z,3.10
2022-08-14T19:37:09.912Z,2.72
2022-08-14T19:39:56.206Z,2.50
2022-08-14T19:42:36.226Z,2.20
2022-08-14T19:45:15.010Z,2.95
2022-08-14T19:47:43.893Z,2.92
2022-08-14T19:50:38.231Z,2.53
2022-08-14T19:53:16.608Z,3.03
2022-08-14T19:55:59.208Z,2.75
2022-08-14T19:58:54.667Z,2.60
2022-08-14T20:01:37.624Z,2.50
2022-08-14T20:04:47.054Z,2.78
2022-08-14T20:07:01.633Z,2.47
2022-08-14T20:11:05.796Z,3.13
2022-08-14T20:12:35.242Z,2.40
2022-08-14T20:17:40.387Z,2.35
2022-08-14T20:20:20.884Z,2.50
2022-08-14T20:23:11.294Z,2.72
2022-08-14T20:25:56.026Z,2.55
2022-08-14T20:28:32.934Z,2.42
2022-08-14T20:31:17.955Z,2.22
2022-08-14T20:34:06.020Z,2.20
2022-08-14T20:36:41.404Z,2.47
2022-08-14T20:39:15.733Z,2.92
2022-08-14T20:41:49.026Z,2.35
2022-08-14T20:47:06.150Z,2.08
2022-08-14T20:49:37.365Z,1.92
2022-08-14T20:52:19.065Z,2.40
2022-08-14T20:54:51.877Z,2.65
2022-08-14T20:57:20.589Z,3.00
2022-08-14T20:59:53.164Z,2.65
2022-08-14T21:02:50.282Z,2.55
2022-08-14T21:05:33.453Z,2.92
2022-08-14T21:08:08.183Z,2.45
2022-08-14T21:10:53.141Z,2.30
2022-08-14T21:13:52.600Z,2.22
2022-08-14T21:16:33.768Z,3.22
2022-08-14T21:19:02.001Z,2.75
2022-08-14T21:21:41.714Z,2.90
2022-08-14T21:24:39.725Z,2.58
2022-08-14T21:27:13.075Z,2.85
2022-08-14T21:29:53.787Z,3.15
2022-08-14T21:32:36.551Z,3.30
2022-08-14T21:35:22.785Z,3.13
2022-08-14T21:37:52.283Z,2.90
2022-08-14T21:40:41.125Z,2.35
2022-08-14T21:43:17.609Z,2.80
2022-08-14T21:45:54.090Z,2.63
2022-08-14T21:48:29.269Z,2.42
2022-08-14T21:51:54.073Z,2.85
2022-08-14T21:53:59.280Z,3.03
2022-08-14T21:56:38.643Z,3.08
2022-08-14T21:59:17.454Z,2.65
2022-08-14T22:02:00.831Z,2.78
2022-08-14T22:04:34.523Z,2.60
2022-08-14T22:07:12.046Z,2.60
2022-08-14T22:09:43.003Z,3.00
2022-08-14T22:12:45.459Z,2.92
2022-08-14T22:15:01.928Z,2.97
2022-08-14T22:17:44.051Z,2.60
2022-08-14T22:20:16.506Z,3.10
2022-08-14T22:22:45.156Z,2.53
2022-08-14T22:25:17.322Z,2.88
2022-08-14T22:27:55.374Z,2.88
2022-08-14T22:30:25.292Z,2.67
2022-08-14T22:32:57.665Z,2.65
2022-08-14T22:35:26.656Z,2.53
2022-08-14T22:38:34.747Z,3.00
2022-08-14T22:41:15.058Z,2.70
2022-08-14T22:43:35.127Z,3.13
2022-08-14T22:46:06.115Z,2.22
2022-08-14T22:48:45.404Z,3.10
2022-08-14T22:51:17.718Z,2.65
2022-08-14T22:53:48.317Z,2.92
2022-08-14T22:56:21.140Z,2.60
2022-08-14T22:58:53.739Z,2.47
2022-08-14T23:01:55.677Z,2.67
2022-08-14T23:04:35.755Z,2.83
2022-08-14T23:07:22.590Z,2.50
2022-08-14T23:09:56.486Z,3.05
2022-08-14T23:12:31.808Z,2.97
2022-08-14T23:15:03.879Z,3.03
2022-08-14T23:17:40.615Z,3.08
2022-08-14T23:20:18.958Z,2.78
2022-08-14T23:22:51.470Z,3.22
2022-08-14T23:25:57.123Z,2.97
2022-08-14T23:28:34.010Z,2.45
2022-08-14T23:31:08.457Z,2.58
2022-08-14T23:33:46.053Z,2.70
2022-08-14T23:36:31.536Z,2.78
2022-08-14T23:39:10.318Z,3.30
2022-08-14T23:41:52.617Z,2.88
2022-08-14T23:44:23.519Z,3.00
2022-08-14T23:46:57.098Z,2.88
2022-08-14T23:49:56.700Z,2.77
2022-08-14T23:53:04.225Z,2.40
2022-08-14T23:55:11.362Z,2.72
2022-08-14T23:57:43.546Z,2.38
